createdAt,value
2018-10-09T00:02:14.449Z,9.97
2018-10-09T00:04:43.240Z,9.86
2018-10-09T00:07:11.917Z,9.67
2018-10-09T00:09:41.524Z,9.70
2018-10-09T00:12:10.238Z,9.76
2018-10-09T00:14:38.892Z,9.64
2018-10-09T00:17:07.544Z,9.51
2018-10-09T00:19:36.272Z,9.61
2018-10-09T00:22:05.024Z,9.59
2018-10-09T00:24:33.670Z,9.63
2018-10-09T00:27:02.323Z,9.70
2018-10-09T00:29:31.027Z,9.60
2018-10-09T00:31:59.721Z,9.63
2018-10-09T00:34:28.415Z,9.64
2018-10-09T00:36:57.101Z,9.67
2018-10-09T00:39:25.806Z,9.75
2018-10-09T00:41:54.491Z,9.54
2018-10-09T00:44:23.203Z,9.48
2018-10-09T00:46:51.938Z,9.53
2018-10-09T00:49:20.643Z,9.51
2018-10-09T00:51:49.385Z,9.55
2018-10-09T00:54:18.097Z,9.62
2018-10-09T00:56:46.772Z,9.60
2018-10-09T00:59:15.426Z,9.69
2018-10-09T01:01:44.103Z,9.55
2018-10-09T01:04:12.847Z,9.52
2018-10-09T01:06:41.502Z,9.76
2018-10-09T01:09:10.256Z,9.72
2018-10-09T01:11:38.931Z,9.69
2018-10-09T01:14:07.650Z,9.66
2018-10-09T01:16:36.332Z,9.70
2018-10-09T01:19:05.109Z,9.54
2018-10-09T01:21:33.805Z,9.62
2018-10-09T01:24:02.463Z,9.60
2018-10-09T01:26:31.187Z,9.51
2018-10-09T01:28:59.896Z,9.44
2018-10-09T01:31:28.623Z,9.36
2018-10-09T01:33:57.557Z,9.46
2018-10-09T01:36:26.197Z,9.65
2018-10-09T01:38:54.833Z,9.60
2018-10-09T01:41:23.456Z,9.45
2018-10-09T01:43:52.245Z,9.18
2018-10-09T01:46:20.891Z,9.32
2018-10-09T01:48:49.584Z,9.24
2018-10-09T01:51:18.211Z,9.24
2018-10-09T01:53:46.820Z,9.34
2018-10-09T01:56:15.479Z,9.34
2018-10-09T01:58:44.096Z,9.25
2018-10-09T02:01:12.760Z,9.29
2018-10-09T02:03:41.417Z,9.41
2018-10-09T02:06:10.383Z,9.30
2018-10-09T02:08:39.259Z,9.34
2018-10-09T02:11:08.041Z,9.41
2018-10-09T02:13:36.691Z,9.50
2018-10-09T02:16:05.280Z,9.47
2018-10-09T02:18:33.926Z,9.49
2018-10-09T02:21:02.541Z,9.56
2018-10-09T02:23:31.187Z,9.49
2018-10-09T02:26:00.105Z,9.52
2018-10-09T02:28:28.736Z,9.57
2018-10-09T02:30:57.392Z,9.52
2018-10-09T02:33:26.094Z,9.48
2018-10-09T02:35:54.679Z,9.39
2018-10-09T02:38:23.315Z,9.47
2018-10-09T02:40:52.058Z,9.54
2018-10-09T02:43:20.657Z,9.55
2018-10-09T02:45:49.308Z,9.62
2018-10-09T02:48:17.936Z,9.63
2018-10-09T02:50:46.575Z,9.47
2018-10-09T02:53:15.239Z,9.40
2018-10-09T02:55:43.881Z,9.48
2018-10-09T02:58:12.565Z,9.46
2018-10-09T03:00:41.216Z,9.35
2018-10-09T03:03:09.911Z,9.42
2018-10-09T03:05:38.555Z,9.37
2018-10-09T03:08:07.368Z,9.30
2018-10-09T03:10:36.028Z,9.29
2018-10-09T03:13:04.688Z,9.17
2018-10-09T03:15:33.334Z,9.14
2018-10-09T03:18:02.000Z,9.27
2018-10-09T03:20:30.735Z,9.18
2018-10-09T03:22:59.293Z,9.12
2018-10-09T03:25:28.041Z,9.08
2018-10-09T03:27:56.663Z,9.02
2018-10-09T03:30:25.350Z,9.00
2018-10-09T03:32:54.039Z,9.00
2018-10-09T03:35:22.659Z,8.93
2018-10-09T03:37:51.294Z,8.97
2018-10-09T03:40:19.910Z,8.87
2018-10-09T03:42:48.559Z,8.83
2018-10-09T03:45:17.195Z,8.93
2018-10-09T03:47:45.844Z,8.95
2018-10-09T03:50:14.500Z,9.12
2018-10-09T03:52:43.210Z,9.09
2018-10-09T03:55:11.849Z,8.92
2018-10-09T03:57:40.500Z,8.83
2018-10-09T04:00:09.129Z,8.97
2018-10-09T04:02:38.375Z,8.98
2018-10-09T04:05:07.119Z,8.75
2018-10-09T04:07:36.012Z,8.68
2018-10-09T04:10:04.856Z,8.71
2018-10-09T04:12:33.547Z,8.59
2018-10-09T04:15:02.199Z,8.45
2018-10-09T04:17:30.952Z,8.50
2018-10-09T04:19:59.674Z,8.48
2018-10-09T04:22:28.387Z,8.34
2018-10-09T04:24:57.035Z,8.42
2018-10-09T04:27:25.687Z,8.57
2018-10-09T04:29:54.381Z,8.43
2018-10-09T04:32:23.007Z,8.43
2018-10-09T04:34:52.038Z,8.49
2018-10-09T04:37:20.711Z,8.52
2018-10-09T04:39:49.388Z,8.59
2018-10-09T04:42:18.266Z,8.55
2018-10-09T04:44:46.922Z,8.66
2018-10-09T04:47:15.971Z,8.49
2018-10-09T04:49:44.817Z,8.56
2018-10-09T04:52:13.470Z,8.51
2018-10-09T04:54:42.091Z,8.62
2018-10-09T04:57:10.759Z,8.55
2018-10-09T04:59:39.403Z,8.67
2018-10-09T05:02:08.643Z,8.67
2018-10-09T05:04:37.316Z,8.76
2018-10-09T05:07:06.000Z,8.70
2018-10-09T05:09:34.663Z,8.76
2018-10-09T05:12:03.328Z,8.83
2018-10-09T05:14:31.983Z,8.78
2018-10-09T05:17:00.611Z,8.83
2018-10-09T05:19:29.314Z,8.97
2018-10-09T05:21:57.987Z,8.87
2018-10-09T05:24:26.590Z,9.02
2018-10-09T05:26:55.287Z,9.01
2018-10-09T05:29:23.975Z,8.89
2018-10-09T05:31:52.607Z,8.82
2018-10-09T05:34:21.272Z,8.81
2018-10-09T05:36:49.974Z,8.79
2018-10-09T05:39:18.632Z,8.79
2018-10-09T05:41:47.334Z,8.67
2018-10-09T05:44:15.972Z,8.64
2018-10-09T05:46:45.956Z,8.50
2018-10-09T05:49:14.714Z,8.65
2018-10-09T05:51:43.353Z,8.53
2018-10-09T05:54:12.033Z,8.41
2018-10-09T05:56:40.691Z,8.23
2018-10-09T05:59:09.335Z,8.24
2018-10-09T06:01:38.194Z,8.19
2018-10-09T06:04:07.025Z,8.21
2018-10-09T06:06:35.660Z,8.20
2018-10-09T06:09:06.707Z,8.33
2018-10-09T06:11:35.326Z,8.49
2018-10-09T06:14:04.103Z,8.50
2018-10-09T06:16:32.755Z,8.60
2018-10-09T06:19:01.381Z,8.60
2018-10-09T06:21:30.020Z,8.65
2018-10-09T06:23:58.718Z,8.56
2018-10-09T06:26:27.455Z,8.74
2018-10-09T06:28:56.085Z,8.81
2018-10-09T06:31:24.769Z,8.78
2018-10-09T06:33:53.581Z,8.92
2018-10-09T06:36:22.169Z,8.90
2018-10-09T06:38:50.853Z,9.00
2018-10-09T06:41:19.751Z,8.85
2018-10-09T06:43:48.427Z,8.93
2018-10-09T06:46:18.425Z,9.01
2018-10-09T06:48:48.285Z,8.95
2018-10-09T06:51:17.119Z,9.01
2018-10-09T06:53:46.003Z,9.08
2018-10-09T06:56:14.567Z,9.12
2018-10-09T06:58:43.208Z,9.20
2018-10-09T07:01:11.839Z,9.09
2018-10-09T07:03:40.509Z,9.20
2018-10-09T07:06:09.532Z,9.64
2018-10-09T07:08:38.240Z,9.65
2018-10-09T07:11:06.945Z,9.74
2018-10-09T07:13:35.609Z,9.77
2018-10-09T07:16:04.312Z,9.92
2018-10-09T07:18:32.993Z,9.88
2018-10-09T07:21:01.644Z,9.99
2018-10-09T07:23:30.337Z,10.00
2018-10-09T07:25:59.004Z,10.09
2018-10-09T07:28:27.614Z,10.34
2018-10-09T07:30:56.259Z,10.42
2018-10-09T07:33:24.923Z,10.46
2018-10-09T07:35:53.534Z,10.77
2018-10-09T07:38:22.188Z,10.82
2018-10-09T07:40:50.906Z,11.01
2018-10-09T07:43:19.558Z,11.02
2018-10-09T07:45:48.193Z,10.97
2018-10-09T07:48:16.851Z,11.13
2018-10-09T07:50:45.584Z,11.20
2018-10-09T07:53:14.207Z,11.34
2018-10-09T07:55:43.001Z,11.28
2018-10-09T07:58:11.636Z,11.38
2018-10-09T08:00:40.312Z,11.40
2018-10-09T08:03:08.975Z,11.63
2018-10-09T08:05:37.874Z,11.74
2018-10-09T08:08:06.787Z,11.81
2018-10-09T08:10:35.529Z,12.01
2018-10-09T08:13:04.135Z,12.19
2018-10-09T08:15:32.778Z,12.28
2018-10-09T08:18:01.439Z,12.48
2018-10-09T08:20:30.096Z,12.64
2018-10-09T08:22:58.895Z,12.84
2018-10-09T08:25:27.463Z,12.95
2018-10-09T08:27:56.258Z,13.10
2018-10-09T08:30:24.855Z,13.22
2018-10-09T08:32:53.554Z,13.51
2018-10-09T08:35:22.192Z,13.64
2018-10-09T08:37:51.022Z,13.93
2018-10-09T08:40:19.791Z,14.21
2018-10-09T08:42:48.495Z,14.51
2018-10-09T08:45:17.214Z,14.60
2018-10-09T08:47:45.924Z,14.40
2018-10-09T08:50:14.607Z,14.74
2018-10-09T08:52:43.337Z,15.01
2018-10-09T08:55:12.165Z,14.80
2018-10-09T08:57:41.024Z,14.66
2018-10-09T09:00:10.394Z,14.70
2018-10-09T09:02:39.075Z,14.39
2018-10-09T09:05:08.236Z,14.33
2018-10-09T09:07:36.942Z,14.59
2018-10-09T09:10:06.145Z,14.50
2018-10-09T09:12:34.787Z,14.37
2018-10-09T09:15:03.497Z,15.07
2018-10-09T09:17:32.157Z,15.51
2018-10-09T09:20:00.820Z,15.40
2018-10-09T09:22:29.469Z,15.32
2018-10-09T09:24:58.260Z,15.23
2018-10-09T09:27:27.009Z,14.97
2018-10-09T09:29:55.644Z,14.79
2018-10-09T09:32:24.349Z,14.72
2018-10-09T09:34:53.040Z,14.91
2018-10-09T09:37:21.727Z,14.93
2018-10-09T09:39:50.398Z,14.88
2018-10-09T09:42:19.000Z,15.21
2018-10-09T09:44:48.271Z,15.33
2018-10-09T09:47:16.986Z,15.36
2018-10-09T09:49:45.625Z,15.55
2018-10-09T09:52:14.398Z,15.49
2018-10-09T09:54:43.040Z,15.31
2018-10-09T09:57:11.713Z,15.85
2018-10-09T09:59:40.423Z,16.61
2018-10-09T10:02:09.064Z,16.61
2018-10-09T10:04:37.794Z,16.90
2018-10-09T10:07:06.708Z,16.88
2018-10-09T10:09:35.404Z,16.74
2018-10-09T10:12:05.236Z,16.52
2018-10-09T10:14:34.867Z,16.29
2018-10-09T10:17:04.054Z,16.26
2018-10-09T10:19:33.813Z,16.24
2018-10-09T10:22:03.280Z,15.52
2018-10-09T10:24:37.284Z,15.55
2018-10-09T10:27:07.096Z,15.95
2018-10-09T10:29:35.940Z,16.32
2018-10-09T10:32:04.643Z,17.29
2018-10-09T10:34:34.158Z,16.87
2018-10-09T10:37:04.727Z,16.98
2018-10-09T10:39:33.612Z,17.60
2018-10-09T10:42:02.436Z,18.47
2018-10-09T10:44:31.470Z,18.05
2018-10-09T10:47:00.388Z,17.93
2018-10-09T10:49:30.335Z,17.32
2018-10-09T10:51:58.972Z,17.62
2018-10-09T10:54:28.926Z,17.80
2018-10-09T10:56:58.838Z,17.69
2018-10-09T10:59:27.607Z,17.60
2018-10-09T11:01:56.435Z,17.40
2018-10-09T11:04:25.083Z,16.98
2018-10-09T11:06:53.775Z,17.49
2018-10-09T11:09:22.449Z,17.65
2018-10-09T11:11:51.148Z,17.28
2018-10-09T11:14:19.809Z,17.62
2018-10-09T11:16:48.604Z,17.58
2018-10-09T11:19:17.343Z,17.65
2018-10-09T11:21:46.033Z,17.23
2018-10-09T11:24:14.854Z,17.25
2018-10-09T11:26:43.788Z,17.48
2018-10-09T11:29:12.732Z,17.39
2018-10-09T11:31:41.443Z,16.88
2018-10-09T11:34:10.120Z,17.21
2018-10-09T11:36:38.859Z,16.99
2018-10-09T11:39:08.013Z,16.59
2018-10-09T11:41:36.748Z,16.84
2018-10-09T11:44:05.592Z,17.07
2018-10-09T11:46:35.465Z,16.88
2018-10-09T11:49:04.151Z,16.88
2018-10-09T11:51:32.782Z,16.98
2018-10-09T11:54:01.482Z,17.04
2018-10-09T11:56:30.105Z,16.93
2018-10-09T11:58:58.787Z,17.16
2018-10-09T12:01:27.419Z,17.13
2018-10-09T12:03:56.099Z,17.06
2018-10-09T12:06:24.817Z,16.88
2018-10-09T12:08:53.459Z,17.01
2018-10-09T12:11:22.133Z,17.11
2018-10-09T12:13:51.263Z,17.07
2018-10-09T12:16:19.925Z,17.33
2018-10-09T12:18:48.583Z,17.30
2018-10-09T12:21:17.292Z,17.40
2018-10-09T12:23:45.914Z,17.66
2018-10-09T12:26:14.691Z,17.81
2018-10-09T12:28:43.341Z,18.24
2018-10-09T12:31:12.126Z,18.85
2018-10-09T12:33:40.778Z,19.42
2018-10-09T12:36:10.079Z,20.01
2018-10-09T12:38:38.749Z,19.88
2018-10-09T12:41:07.455Z,20.35
2018-10-09T12:43:36.171Z,20.45
2018-10-09T12:46:04.803Z,20.66
2018-10-09T12:48:33.636Z,20.68
2018-10-09T12:51:02.341Z,21.05
2018-10-09T12:53:31.008Z,20.79
2018-10-09T12:55:59.683Z,20.93
2018-10-09T12:58:28.474Z,20.85
2018-10-09T13:00:57.123Z,21.28
2018-10-09T13:03:25.885Z,21.48
2018-10-09T13:05:54.555Z,21.44
2018-10-09T13:08:23.241Z,21.28
2018-10-09T13:10:52.121Z,21.51
2018-10-09T13:13:20.841Z,21.38
2018-10-09T13:15:49.557Z,21.29
2018-10-09T13:18:18.229Z,21.28
2018-10-09T13:20:46.915Z,20.79
2018-10-09T13:23:15.689Z,20.77
2018-10-09T13:25:44.551Z,20.58
2018-10-09T13:28:13.212Z,20.69
2018-10-09T13:30:41.969Z,20.61
2018-10-09T13:33:10.646Z,21.11
2018-10-09T13:35:39.343Z,21.45
2018-10-09T13:38:08.037Z,21.67
2018-10-09T13:40:36.801Z,21.62
2018-10-09T13:43:05.513Z,21.97
2018-10-09T13:45:34.196Z,21.52
2018-10-09T13:48:02.879Z,21.51
2018-10-09T13:50:31.686Z,20.71
2018-10-09T13:53:00.286Z,20.17
2018-10-09T13:55:28.892Z,20.18
2018-10-09T13:57:57.521Z,20.04
2018-10-09T14:00:26.249Z,20.13
2018-10-09T14:02:54.896Z,19.92
2018-10-09T14:05:23.560Z,19.56
2018-10-09T14:07:52.287Z,19.43
2018-10-09T14:10:20.975Z,19.40
2018-10-09T14:12:49.739Z,19.06
2018-10-09T14:15:18.456Z,19.13
2018-10-09T14:17:47.145Z,19.00
2018-10-09T14:20:15.858Z,18.85
2018-10-09T14:22:44.525Z,18.70
2018-10-09T14:25:13.285Z,18.80
2018-10-09T14:27:41.925Z,18.64
2018-10-09T14:30:10.627Z,18.46
2018-10-09T14:32:39.366Z,18.47
2018-10-09T14:35:08.075Z,18.44
2018-10-09T14:37:36.868Z,18.39
2018-10-09T14:40:05.526Z,18.37
2018-10-09T14:42:34.147Z,18.34
2018-10-09T14:45:02.906Z,18.21
2018-10-09T14:47:31.558Z,18.23
2018-10-09T14:50:00.652Z,18.21
2018-10-09T14:52:29.348Z,18.10
2018-10-09T14:54:58.009Z,18.00
2018-10-09T14:57:26.737Z,17.99
2018-10-09T14:59:55.426Z,17.87
2018-10-09T15:02:24.050Z,17.88
2018-10-09T15:04:52.800Z,17.85
2018-10-09T15:07:21.642Z,17.84
2018-10-09T15:09:50.410Z,17.81
2018-10-09T15:12:19.220Z,17.82
2018-10-09T15:14:47.926Z,17.65
2018-10-09T15:17:16.642Z,17.77
2018-10-09T15:19:45.355Z,17.66
2018-10-09T15:22:15.296Z,17.77
2018-10-09T15:24:44.304Z,17.75
2018-10-09T15:27:12.994Z,17.56
2018-10-09T15:29:41.665Z,17.60
2018-10-09T15:32:10.368Z,17.61
2018-10-09T15:34:39.136Z,17.59
2018-10-09T15:37:07.830Z,17.53
2018-10-09T15:39:36.482Z,17.62
2018-10-09T15:42:05.249Z,17.55
2018-10-09T15:44:33.934Z,17.60
2018-10-09T15:47:03.462Z,17.54
2018-10-09T15:49:32.245Z,17.38
2018-10-09T15:52:01.148Z,17.34
2018-10-09T15:54:29.864Z,17.22
2018-10-09T15:56:58.549Z,17.17
2018-10-09T15:59:27.243Z,17.00
2018-10-09T16:01:55.966Z,16.90
2018-10-09T16:04:24.610Z,17.00
2018-10-09T16:06:54.037Z,16.99
2018-10-09T16:09:22.896Z,16.99
2018-10-09T16:11:51.874Z,16.74
2018-10-09T16:14:20.638Z,16.76
2018-10-09T16:16:50.391Z,16.66
2018-10-09T16:19:19.051Z,16.69
2018-10-09T16:21:47.687Z,16.59
2018-10-09T16:24:16.399Z,16.56
2018-10-09T16:26:45.037Z,16.64
2018-10-09T16:29:13.736Z,16.59
2018-10-09T16:31:42.428Z,16.50
2018-10-09T16:34:11.124Z,16.57
2018-10-09T16:36:39.895Z,16.52
2018-10-09T16:39:10.152Z,16.29
2018-10-09T16:41:39.795Z,16.29
2018-10-09T16:44:11.062Z,16.31
2018-10-09T16:46:39.928Z,16.10
2018-10-09T16:49:08.570Z,16.07
2018-10-09T16:51:37.219Z,16.07
2018-10-09T16:54:05.935Z,16.13
2018-10-09T16:56:34.592Z,16.11
2018-10-09T16:59:03.563Z,15.89
2018-10-09T17:01:32.232Z,15.88
2018-10-09T17:04:00.968Z,15.71
2018-10-09T17:06:29.746Z,15.73
2018-10-09T17:08:58.532Z,15.58
2018-10-09T17:11:27.142Z,15.58
2018-10-09T17:13:56.027Z,15.63
2018-10-09T17:16:24.727Z,15.67
2018-10-09T17:18:53.412Z,15.69
2018-10-09T17:21:22.144Z,15.66
2018-10-09T17:23:50.825Z,15.45
2018-10-09T17:26:19.492Z,15.44
2018-10-09T17:28:48.201Z,15.51
2018-10-09T17:31:16.941Z,15.31
2018-10-09T17:33:46.504Z,15.09
2018-10-09T17:36:15.277Z,15.11
2018-10-09T17:38:44.065Z,15.12
2018-10-09T17:41:12.841Z,15.12
2018-10-09T17:43:42.030Z,14.88
2018-10-09T17:46:10.762Z,14.82
2018-10-09T17:48:39.555Z,14.60
2018-10-09T17:51:08.187Z,14.52
2018-10-09T17:53:36.968Z,14.44
2018-10-09T17:56:05.828Z,14.59
2018-10-09T17:58:34.806Z,14.51
2018-10-09T18:01:03.836Z,14.66
2018-10-09T18:03:32.551Z,14.73
2018-10-09T18:06:01.259Z,14.85
2018-10-09T18:08:29.912Z,14.66
2018-10-09T18:10:58.667Z,14.72
2018-10-09T18:13:27.551Z,14.80
2018-10-09T18:15:56.216Z,14.84
2018-10-09T18:18:25.063Z,14.77
2018-10-09T18:20:53.688Z,14.85
2018-10-09T18:23:22.386Z,14.87
2018-10-09T18:25:51.118Z,14.88
2018-10-09T18:28:19.827Z,14.89
2018-10-09T18:30:48.576Z,14.87
2018-10-09T18:33:17.362Z,14.81
2018-10-09T18:35:45.908Z,14.79
2018-10-09T18:38:14.544Z,14.85
2018-10-09T18:40:43.398Z,14.79
2018-10-09T18:43:11.922Z,14.66
2018-10-09T18:45:41.208Z,14.65
2018-10-09T18:48:09.886Z,14.68
2018-10-09T18:50:38.582Z,14.58
2018-10-09T18:53:07.260Z,14.48
2018-10-09T18:55:35.904Z,14.57
2018-10-09T18:58:04.647Z,14.67
2018-10-09T19:00:33.370Z,14.56
2018-10-09T19:03:02.032Z,14.58
2018-10-09T19:05:30.727Z,14.55
2018-10-09T19:07:59.357Z,14.40
2018-10-09T19:10:28.062Z,14.41
2018-10-09T19:12:56.903Z,14.44
2018-10-09T19:15:25.556Z,14.33
2018-10-09T19:17:54.235Z,14.45
2018-10-09T19:20:22.888Z,14.44
2018-10-09T19:22:51.631Z,14.38
2018-10-09T19:25:20.282Z,14.32
2018-10-09T19:27:48.947Z,14.35
2018-10-09T19:30:17.570Z,14.45
2018-10-09T19:32:46.277Z,14.41
2018-10-09T19:35:14.895Z,14.41
2018-10-09T19:37:43.557Z,14.52
2018-10-09T19:40:12.222Z,14.38
2018-10-09T19:42:40.896Z,14.45
2018-10-09T19:45:09.593Z,14.56
2018-10-09T19:47:38.504Z,14.43
2018-10-09T19:50:07.962Z,14.40
2018-10-09T19:52:37.184Z,14.40
2018-10-09T19:55:06.019Z,14.43
2018-10-09T19:57:34.683Z,14.33
2018-10-09T20:00:03.421Z,14.37
2018-10-09T20:02:32.113Z,14.34
2018-10-09T20:05:00.819Z,14.35
2018-10-09T20:07:29.649Z,14.20
2018-10-09T20:09:58.320Z,14.01
2018-10-09T20:12:27.064Z,14.15
2018-10-09T20:14:55.776Z,14.10
2018-10-09T20:17:24.660Z,13.97
2018-10-09T20:19:53.312Z,13.93
2018-10-09T20:22:22.100Z,13.92
2018-10-09T20:24:50.789Z,13.90
2018-10-09T20:27:19.600Z,13.83
2018-10-09T20:29:48.308Z,13.79
2018-10-09T20:32:17.017Z,13.83
2018-10-09T20:34:45.717Z,13.67
2018-10-09T20:37:14.444Z,13.59
2018-10-09T20:39:43.279Z,13.63
2018-10-09T20:42:12.026Z,13.53
2018-10-09T20:44:40.708Z,13.43
2018-10-09T20:47:09.376Z,13.35
2018-10-09T20:49:38.168Z,13.43
2018-10-09T20:52:07.022Z,13.33
2018-10-09T20:54:35.680Z,13.24
2018-10-09T20:57:04.340Z,13.17
2018-10-09T20:59:33.069Z,13.10
2018-10-09T21:02:01.729Z,13.08
2018-10-09T21:04:30.631Z,13.10
2018-10-09T21:06:59.305Z,12.93
2018-10-09T21:09:27.996Z,12.82
2018-10-09T21:11:56.722Z,12.74
2018-10-09T21:14:25.471Z,12.64
2018-10-09T21:16:54.191Z,12.59
2018-10-09T21:19:22.942Z,12.63
2018-10-09T21:21:51.591Z,12.79
2018-10-09T21:24:20.508Z,12.71
2018-10-09T21:26:49.203Z,12.74
2018-10-09T21:29:17.872Z,12.70
2018-10-09T21:31:46.611Z,12.58
2018-10-09T21:34:15.278Z,12.53
2018-10-09T21:36:43.963Z,12.51
2018-10-09T21:39:12.676Z,12.49
2018-10-09T21:41:41.336Z,12.41
2018-10-09T21:44:10.012Z,12.42
2018-10-09T21:46:38.652Z,12.35
2018-10-09T21:49:07.419Z,12.30
2018-10-09T21:51:36.163Z,12.29
2018-10-09T21:54:04.919Z,12.29
2018-10-09T21:56:33.687Z,12.30
2018-10-09T21:59:02.425Z,12.34
2018-10-09T22:01:31.057Z,12.21
2018-10-09T22:03:59.712Z,12.10
2018-10-09T22:06:28.372Z,12.12
2018-10-09T22:08:57.092Z,12.01
2018-10-09T22:11:26.004Z,12.04
2018-10-09T22:13:54.769Z,12.06
2018-10-09T22:16:23.535Z,11.98
2018-10-09T22:18:52.508Z,11.97
2018-10-09T22:21:21.196Z,11.96
2018-10-09T22:23:49.846Z,11.98
2018-10-09T22:26:18.533Z,11.93
2018-10-09T22:28:47.235Z,11.91
2018-10-09T22:31:15.896Z,11.90
2018-10-09T22:33:44.859Z,11.93
2018-10-09T22:36:13.685Z,11.93
2018-10-09T22:38:42.361Z,11.91
2018-10-09T22:41:11.083Z,11.94
2018-10-09T22:43:39.776Z,11.82
2018-10-09T22:46:08.430Z,11.79
2018-10-09T22:48:38.704Z,11.67
2018-10-09T22:51:07.496Z,11.60
2018-10-09T22:53:36.128Z,11.58
2018-10-09T22:56:04.835Z,11.60
2018-10-09T22:58:33.481Z,11.62
2018-10-09T23:01:02.161Z,11.66
2018-10-09T23:03:30.774Z,11.56
2018-10-09T23:05:59.427Z,11.63
2018-10-09T23:08:28.076Z,11.69
2018-10-09T23:10:56.748Z,11.57
2018-10-09T23:13:25.387Z,11.48
2018-10-09T23:15:53.989Z,11.64
2018-10-09T23:18:22.691Z,11.39
2018-10-09T23:20:51.339Z,11.44
2018-10-09T23:23:19.974Z,11.43
2018-10-09T23:25:48.619Z,11.46
2018-10-09T23:28:17.271Z,11.30
2018-10-09T23:30:45.963Z,11.23
2018-10-09T23:33:14.675Z,11.31
2018-10-09T23:35:43.360Z,11.41
2018-10-09T23:38:12.008Z,11.44
2018-10-09T23:40:40.691Z,11.40
2018-10-09T23:43:09.399Z,11.33
2018-10-09T23:45:38.008Z,11.32
2018-10-09T23:48:09.687Z,11.34
2018-10-09T23:50:40.287Z,11.33
2018-10-09T23:53:08.967Z,11.48
2018-10-09T23:55:37.923Z,11.49
2018-10-09T23:58:06.860Z,11.47
